Alex Lima

Chief Scout - Cruzeiro
28 Oct 2027
Thursday
Process

Personality

Adaptability (15) Ambition (6) Controversy (4) Loyalty (13) Pressure (16) Professionalism (10) Sportsmanship (10) Temperament (9)

Profile

Coaching Style Democratic
License National B
Determination 13
Man Management 14
Motivating 10
Discipline 9
Job Satisfaction
89%
Fatigue
0%
Role Chief Scout
Wage 100.8K p/w
Contract 14.03.2028

Performance

Behaviour Good
Training Effectiveness
33%
Player Development
70%
Injury Prevention
55%
Tactical Implementation
45%

Recent Events

Assessed a player now
Attended a recruitment meeting now
Recommended a transfer target now
Attended a recruitment meeting now
Assessed a player now
Assessed a player 7d ago
Assessed a player 7d ago
Assessed a player 7d ago

Currently Monitoring

242
Player Club Status Ability Confidence Watched Last Observed Latest Vote
Kevin Paredes River Plate Active 136 / 125 40% 2 27.10.2027 -
Samuel Lucero Defensa y Justicia Active 114 / 130 40% 2 27.10.2027 -
Ferreirinha Sport Recife Active 141 / 125 40% 1 27.10.2027 -
Luca Langoni Colorado Rapids Active 140 / 135 40% 1 27.10.2027 -
Edinson Largacha Millonarios Active 116 / 110 40% 2 26.10.2027 -
Diego Luna Real Salt Lake Active 138 / 136 40% 2 26.10.2027 -
Gianluca Pugliese Güemes Active 104 / 111 40% 2 25.10.2027 -
Alejo Cruz Juventud Active 129 / 123 40% 1 25.10.2027 -
Lucas Assadi AIK Active 135 / 124 40% 3 23.10.2027 -
Maximiliano Meléndez Chacarita Juniors Active 123 / 128 40% 2 23.10.2027 -
Dejan Joveljić Seattle Sounders Active 126 / 128 40% 2 23.10.2027 -
Augusto Berrondo Tristán Suárez Active 117 / 115 40% 1 23.10.2027 -
Jorge Obregón Deportivo Pasto Active 112 / 117 40% 1 21.10.2027 -
Telasco Segovia Inter Miami CF Active 142 / 130 40% 2 20.10.2027 -
Cheikh Sabaly Vancouver Whitecaps Active 128 / 127 40% 1 20.10.2027 -
Martín Ojeda Orlando City Active 130 / 136 40% 1 20.10.2027 -
Mauricio Amaro Atlanta United FC Active 123 / 120 40% 4 19.10.2027 -
Brooke Norton-Cuffy Inter Miami CF Active 138 / 140 40% 2 19.10.2027 -
Agustín Gallo Tristán Suárez Active 117 / 112 40% 2 17.10.2027 -
Louis Munteanu DC United Active 131 / 124 40% 2 17.10.2027 -
Fernando Mimbacas Juventud Active 104 / 104 40% 1 16.10.2027 -
Negueba Mirassol Active 124 / 131 40% 2 15.10.2027 -
Alexis Cuello San Lorenzo Active 136 / 126 40% 2 15.10.2027 -
Lisandro Cabrera Maipú Active 122 / 117 40% 1 14.10.2027 -
Agustín Anello Philadelphia Union Active 131 / 121 40% 1 14.10.2027 -
Bénie Traoré New York City Active 130 / 119 40% 5 13.10.2027 -
Samuel Gidi FC Cincinnati Active 116 / 119 40% 2 13.10.2027 -
Joaquín Gho Argentinos Juniors Active 134 / 130 40% 1 13.10.2027 -
Luciano Cosentino Wanderers Active 122 / 128 40% 1 08.10.2027 -
Alexis Domínguez Chacarita Juniors Active 123 / 109 40% 1 08.10.2027 -
Emmanuel Sabbi Vancouver Whitecaps Active 125 / 125 40% 1 07.10.2027 -
Arthur Cabral Botafogo Active 122 / 128 40% 1 07.10.2027 -
Wessam Abou Ali Columbus Crew Active 136 / 129 40% 1 06.10.2027 -
Rafael Navarro St. Louis CITY SC Active 123 / 119 40% 1 05.10.2027 -
Ilay Feingold New England Revolution Active 113 / 118 40% 2 04.10.2027 -
Juan Cruz de los Santos Nacional Active 130 / 131 40% 2 04.10.2027 -
Tomás Porra Barracas Central Active 127 / 113 40% 1 04.10.2027 -
Mateo Silvetti Los Angeles Football Club Active 134 / 130 40% 1 02.10.2027 -
Rodrigo Chagas Juventud Active 114 / 118 40% 1 30.09.2027 -
Victor Lind Hammarby Active 113 / 134 40% 3 29.09.2027 -
Paxten Aaronson Colorado Rapids Active 132 / 142 40% 3 28.09.2027 -
Wallace Yan Botafogo Active 128 / 130 40% 2 27.09.2027 -
Ralph Orquin Seattle Sounders Active 127 / 127 40% 4 27.09.2027 -
Amin Boudri Los Angeles Football Club Active 116 / 134 40% 4 25.09.2027 -
Oleh Ocheretko Austin FC Active 129 / 140 40% 3 25.09.2027 -
Quinn Sullivan Philadelphia Union Active 122 / 118 40% 4 23.09.2027 -
Noel Buck San Jose Earthquakes Active 123 / 117 40% 3 22.09.2027 -
Gustavo Neves Bragantino Active 131 / 129 40% 2 22.09.2027 -
Ahmed Qasem Nashville SC Active 130 / 123 40% 1 18.09.2027 -
Ramiro Hernandes Belgrano Active 126 / 119 40% 1 15.09.2027 -
Andrés Gómez Vasco da Gama Active 142 / 139 40% 2 14.09.2027 -
Ignacio Perruzzi San Lorenzo Active 120 / 138 40% 1 02.09.2027 -
Vinicinho Bragantino Active 131 / 125 40% 2 27.08.2027 -
Brahima Diarra Al Wahda Active 119 / 106 40% 1 23.08.2027 -
Davide Bartesaghi AC Milan Active 150 / 155 40% 1 20.08.2027 -
Devyne Rensch AS Roma Active 133 / 151 40% 1 19.08.2027 -
Matteo Francesconi Cesena Active 133 / 143 40% 1 19.08.2027 -
Tommaso Berti Cesena Active 121 / 135 40% 1 18.08.2027 -
Romano Floriani Mussolini Avellino Active 125 / 145 40% 1 17.08.2027 -
Griffin Yow New England Revolution Active 134 / 119 40% 1 17.08.2027 -
Cher Ndour Fiorentina Active 149 / 138 40% 2 15.08.2027 -
Isaac Kyereh Liberty Professionals Active 128 / 107 40% 1 15.08.2027 -
Assane Diao Lazio Active 160 / 164 40% 3 12.08.2027 -
Jayden Addai Como Active 141 / 127 40% 1 11.08.2027 -
Stiven Shpendi Empoli Active 118 / 125 40% 1 11.08.2027 -
Filippo Distefano Empoli Active 123 / 132 40% 1 10.08.2027 -
Cian Ashford Cardiff City Active 113 / 118 40% 1 09.08.2027 -
Tom Fellows Southampton Active 136 / 131 40% 2 08.08.2027 -
Ethan Williams Peterborough United Active 127 / 136 40% 1 08.08.2027 -
Kevin Fulham Active 152 / 148 40% 1 04.08.2027 -
Stanley Mills Oxford United Active 136 / 141 40% 2 03.08.2027 -
Jack McGlynn Stoke City Active 131 / 146 40% 1 03.08.2027 -
Toby Collyer West Bromwich Albion Active 146 / 127 40% 2 02.08.2027 -
Richard Koné Queens Park Rangers Active 130 / 125 40% 1 02.08.2027 -
Yeremy Pino Crystal Palace Active 166 / 153 40% 1 19.07.2027 -
George Hall Port Vale Active 104 / 111 40% 1 19.07.2027 -
Malick Fofana Sunderland Active 161 / 137 40% 1 29.06.2027 -
Luis Vázquez Birmingham Active 126 / 139 40% 2 14.06.2027 -
Andrea Pinamonti Lazio Active 129 / 141 40% 1 14.06.2027 -
Dudu Vitória Lost 122 / 121 58% 1 04.06.2027 -
Jhosefer ABC Active 102 / 117 58% 1 02.06.2027 Approve
James Trafford Leeds United Active 146 / 162 40% 7 30.05.2027 -
Pol Tristán Barnsley Active 124 / 105 40% 1 30.05.2027 -
Max O'Leary West Bromwich Albion Active 137 / 126 40% 4 29.05.2027 -
Grégoire Coudert Burnley Active 130 / 130 40% 3 28.05.2027 -
Balázs Tóth Blackburn Rovers Active 144 / 115 40% 4 28.05.2027 -
Gabriel Martinelli Brighton Active 175 / 167 40% 1 28.05.2027 -
Robin Roefs Sunderland Active 132 / 154 40% 9 26.05.2027 -
Kostantis Tzolakis Hull City Active 149 / 135 40% 12 26.05.2027 -
Justin Bijlow Genoa Active 153 / 153 40% 2 25.05.2027 -
Caoimhin Kelleher Brentford Active 142 / 140 40% 9 24.05.2027 -
Egil Selvik Watford Active 142 / 128 40% 5 23.05.2027 -
Bilal Bayazıt Kayserispor Active 117 / 135 40% 1 23.05.2027 -
Radek Vítek Middlesbrough Active 133 / 126 40% 8 22.05.2027 -
Simone Scuffet Pisa Active 131 / 126 40% 4 22.05.2027 -
Lorenzo Palmisani Frosinone Active 129 / 144 40% 2 21.05.2027 -
Deniz Ertaş Konyaspor Active 125 / 122 40% 1 21.05.2027 -
Beau Reus Waasland-Beveren Active 123 / 130 40% 2 20.05.2027 -
Edoardo Motta Lazio Active 126 / 123 40% 1 17.05.2027 -
Yankuba Minteh Brighton Active 162 / 145 40% 1 17.05.2027 -
Fer López Wolverhampton Active 131 / 120 40% 1 17.05.2027 -
Daniel Iversen Preston Active 132 / 135 40% 5 15.05.2027 -
Murphy Cooper Plymouth Argyle Active 131 / 121 40% 1 14.05.2027 -
Giacomo Raspadori Atalanta Active 152 / 161 40% 1 13.05.2027 Needs More Info
Dominic Calvert-Lewin Leeds United Active 130 / 130 40% 2 12.05.2027 -
Andre Brooks Sheffield United Active 116 / 142 40% 2 11.05.2027 -
Mohamed Belloumi Hull City Active 127 / 128 40% 1 11.05.2027 -
Tammy Abraham Aston Villa Active 155 / 145 40% 1 11.05.2027 -
Ortwin De Wolf KV Mechelen Active 135 / 106 40% 2 08.05.2027 -
Gonçalo Ramos AC Milan Active 159 / 162 40% 1 08.05.2027 -
Christos Mouzakitis Hull City Active 118 / 141 40% 1 07.05.2027 -
Othmane Maamma Watford Active 132 / 124 40% 1 06.05.2027 -
Bento Al-Nassr Active 126 / 133 40% 1 04.05.2027 -
Adam Wharton Crystal Palace Active 150 / 139 40% 1 02.05.2027 -
Thomas De Bruyne Mouscron Active 122 / 123 40% 1 28.04.2027 -
Taty Castellanos West Ham United Active 144 / 146 40% 1 28.04.2027 -
Georginio Rutter Brighton Active 153 / 148 40% 1 28.04.2027 -
Dango Ouattara Brentford Active 149 / 150 40% 1 27.04.2027 -
Hwang Hee-Chan Wolverhampton Active 120 / 135 40% 1 27.04.2027 -
Donyell Malen AS Roma Active 151 / 157 40% 1 26.04.2027 -
Juan Soriano Académico de Viseu Active 143 / 110 40% 7 24.04.2027 -
Luis Quintero Torreense Active 132 / 118 40% 1 24.04.2027 -
Mario Dorgeles Braga Active 130 / 134 40% 1 24.04.2027 -
Patrick Sequeira Casa Pia Active 123 / 110 40% 5 21.04.2027 -
Tyler Goodrham Oxford United Active 113 / 140 40% 1 21.04.2027 -
Louie Barry Sheffield Wednesday Active 135 / 117 40% 1 21.04.2027 -
Roméo Beney Famalicao Active 102 / 113 40% 1 20.04.2027 -
Dean Henderson Crystal Palace Active 148 / 152 40% 5 17.04.2027 -
Jacob Widell Zetterström Derby County Active 137 / 132 40% 1 16.04.2027 -
Juninho Pumas UNAM Active 127 / 137 40% 2 15.04.2027 -
George Wickens Lincoln City Active 104 / 107 40% 3 15.04.2027 -
Yousef Salech Cardiff City Active 120 / 127 40% 1 15.04.2027 -
Cezary Miszta Rio Ave Active 134 / 144 40% 6 12.04.2027 -
Jamie Cumming Oxford United Active 122 / 119 40% 5 10.04.2027 -
Beni Mukendi Vitoria Guimaraes Active 115 / 132 40% 1 08.04.2027 -
Rodrigo Ramos Moreirense Active 122 / 126 40% 1 08.04.2027 -
Gonçalo Nogueira Vitoria Guimaraes Active 119 / 106 40% 1 07.04.2027 -
Armando Broja Burnley Active 137 / 119 40% 1 06.04.2027 -
Ollie Tanner Cardiff City Active 107 / 118 40% 1 02.04.2027 -
Erick Reyes Toluca Active 143 / 154 40% 11 30.03.2027 -
Gianluca Prestianni Benfica Active 138 / 145 40% 2 30.03.2027 -
Hugo Cuypers Monterrey Active 123 / 122 40% 1 30.03.2027 -
Adnan Courtois KV Oostende Active 143 / 118 40% 1 30.03.2027 -
Mandla Erasmus SuperSport United Active 124 / 106 40% 1 30.03.2027 -
Pablo Monroy Pumas UNAM Active 110 / 129 40% 1 29.03.2027 -
Mads Hermansen West Ham United Active 153 / 135 40% 3 27.03.2027 -
Carlos Moreno Pachuca Active 138 / 140 40% 3 23.03.2027 -
Antonio Gomis Vizela Active 138 / 133 40% 1 23.03.2027 -
Lukas Jensen Millwall Active 121 / 119 40% 2 21.03.2027 -
Oli McBurnie Hull City Active 138 / 129 40% 3 19.03.2027 -
Hugo Souza Corinthians Active 145 / 142 40% 5 18.03.2027 -
Petar Musa Adana Demirspor Active 131 / 139 40% 1 14.03.2027 -
Moussa Dembélé CR Belouizdad Active 128 / 122 40% 1 14.03.2027 -
Ignacio de Arruabarrena Arouca Active 144 / 122 40% 11 11.03.2027 -
Raúl Rangel Sporting CP Active 146 / 144 40% 5 11.03.2027 -
Adriel Torreense Active 108 / 132 40% 2 10.03.2027 -
Arijanet Murić Sassuolo Active 128 / 144 40% 1 06.03.2027 -
Lazar Carević Famalicao Active 132 / 120 40% 6 04.03.2027 -
Michael Cooper Sheffield United Active 120 / 140 40% 2 02.03.2027 -
Dodi Lukébakio Benfica Active 156 / 144 40% 3 01.03.2027 -
Ivan Toney Al-Ahli Active 156 / 147 40% 1 01.03.2027 -
Zeki Amdouni Burnley Active 126 / 135 40% 2 28.02.2027 -
Callum O'Hare Sheffield United Active 120 / 144 40% 1 26.02.2027 -
André Silva Tondela Active 116 / 124 40% 2 24.02.2027 -
Iker Benito Queretaro Active 117 / 130 40% 2 23.02.2027 -
Rodrigo Pinheiro Famalicao Active 115 / 118 40% 1 23.02.2027 -
Yusuke Matsuo Esteghlal Active 117 / 124 40% 1 22.02.2027 -
Domagoj Drožđek Tractor Active 118 / 115 40% 1 22.02.2027 -
Fotis Ioannidis Rio Ave Active 134 / 144 40% 3 19.02.2027 -
Lewis Morgan SuperSport United Active 123 / 133 40% 1 18.02.2027 -
Iván Fresneda Sporting CP Active 147 / 127 40% 1 18.02.2027 -
Nicolas Schmid Portsmouth Active 108 / 132 40% 3 16.02.2027 -
Vitor Eudes Fluminense Active 128 / 118 40% 1 14.02.2027 -
Ilay Camara Anderlecht Active 116 / 125 40% 1 13.02.2027 -
Ilyas Ansah Hull City Active 122 / 120 40% 1 09.02.2027 -
Hany Mukhtar Spezia Active 153 / 119 40% 1 09.02.2027 -
Sipho Chaine Orlando Pirates Active 135 / 103 40% 1 08.02.2027 -
Kerem Aktürkoğlu Fenerbahce Active 158 / 124 40% 1 07.02.2027 -
Lucas Arcanjo Vitória Active 129 / 122 40% 2 06.02.2027 -
Yehvann Diouf OGC Nice Active 134 / 127 40% 1 04.02.2027 -
Taichi Fukui Arouca Active 110 / 143 40% 1 03.02.2027 -
John Kennedy Fluminense Active 116 / 134 58% 1 28.12.2026 -
Alessandro Buongiorno Sassuolo Active 169 / 154 40% 1 30.11.2026 -
Christian Krasnodar Active 142 / 144 40% 1 30.11.2026 -
Nicolás Sumavil Platense Active 117 / 114 40% 1 27.11.2026 -
Lucas Piton Vasco da Gama Active 140 / 140 40% 1 25.11.2026 -
Anel Ahmedhodžić Burnley Active 129 / 132 40% 1 25.11.2026 -
André Moreira Oliveirense Active 122 / 98 40% 1 22.11.2026 -
Carlos Vinícius Grêmio Active 124 / 130 40% 1 19.11.2026 -
Héctor Hernández Gil Vicente Active 134 / 135 40% 1 19.11.2026 -
Neymar Santos Active 154 / 152 40% 2 17.11.2026 -
Geovanni Banguera Deportivo Pasto Active 112 / 117 40% 2 13.11.2026 -
Ezequiel Centurión River Plate Active 127 / 128 40% 1 11.11.2026 -
Bernardo Fontes Braga Active 120 / 121 40% 1 10.11.2026 -
Víctor Cabezas Union Magdalena Active 114 / 129 40% 1 02.11.2026 -
Matěj Kovář PSV Active 137 / 151 40% 1 02.11.2026 Needs More Info
André Ferreira Moreirense Active 104 / 110 40% 2 31.10.2026 -
Chuchu Ramírez Nacional Active 117 / 111 40% 1 31.10.2026 -
Gustaf Lagerbielke Braga Active 149 / 118 40% 1 31.10.2026 -
Aníbal Moreno River Plate Active 139 / 126 40% 1 31.10.2026 -
Alfonso Trezza Arouca Active 135 / 128 40% 1 27.10.2026 -
Luis Ingolotti Atlético Tucumán Active 122 / 116 40% 1 25.10.2026 -
Eduardo Sasha Bragantino Active 129 / 133 40% 1 24.10.2026 -
Facundo Cambeses Racing Club Active 132 / 118 40% 1 23.10.2026 -
Felipe Parra Envigado Active 113 / 114 40% 3 19.10.2026 -
José Manuel López Palmeiras Active 125 / 142 40% 1 19.10.2026 -
Christian Walton Ipswich Town Active 144 / 125 40% 2 18.10.2026 -
Gabriel Jesus Barcelona Active 139 / 140 40% 1 16.10.2026 -
Gabriel Veron Porto Active 129 / 128 40% 1 15.10.2026 -
Gabriel Batista Botafogo Active 137 / 128 40% 3 10.10.2026 -
Drake Callender Minnesota United FC Active 127 / 124 40% 1 08.10.2026 -
Jean America de Cali Active 120 / 132 40% 3 06.10.2026 -
Matheus Mendes Alverca Active 105 / 129 40% 2 04.10.2026 -
Carlos Miguel Palmeiras Active 137 / 140 40% 4 02.10.2026 -
Antoine Griezmann Orlando City Active 158 / 154 40% 2 30.09.2026 -
Inti López River Plate Active 92 / 90 40% 1 28.09.2026 -
Patrick Schulte Columbus Crew Active 120 / 111 40% 1 25.09.2026 -
Jalen Blesa Rio Ave Active 101 / 132 40% 1 25.09.2026 -
Gustavo Silva Vitoria Guimaraes Active 112 / 106 40% 1 25.09.2026 -
Youssoufa Moukoko FC Copenhagen Active 135 / 131 40% 1 23.09.2026 -
Vinícius Lopes Santa Clara Active 126 / 129 40% 1 21.09.2026 -
Jonás Luna Santa Clara Active 117 / 115 40% 1 19.09.2026 -
Jovan Milošević Braga Active 132 / 104 40% 1 16.09.2026 -
Andrés Gudiño Cruz Azul Active 121 / 114 40% 1 10.09.2026 -
Léo Jacó Santa Clara Active 92 / 118 40% 1 10.09.2026 -
Markus Jensen Nacional Active 119 / 105 40% 1 10.09.2026 -
Paulinho Palmeiras Active 147 / 130 40% 2 07.09.2026 -
Roberto Fernández Braga Active 126 / 142 40% 1 07.09.2026 -
Roberto Ramírez Godoy Cruz Active 128 / 122 40% 1 05.09.2026 -
Rafa Benfica Active 152 / 137 40% 1 02.09.2026 -
Arnel Jakupović Vitoria Guimaraes Active 108 / 99 40% 1 01.09.2026 -
Diego Rossi Monterrey Active 127 / 138 40% 1 01.09.2026 -
Mohammed Bouldini Académico de Viseu Active 130 / 128 40% 1 30.08.2026 -
Nicolás Campisi Sportivo Luqueno Active 129 / 115 40% 1 27.08.2026 -
Matt Freese New York City Active 134 / 118 40% 1 22.08.2026 -
Manuel Roffo Cerro Porteno Active 134 / 116 40% 1 15.08.2026 -
Heung-Min Son Los Angeles Football Club Active 150 / 152 40% 1 12.08.2026 -
Yoane Wissa Newcastle United Active 155 / 143 40% 1 12.08.2026 -
Ronaldo Bahia Active 127 / 123 40% 1 04.08.2026 -
Unai Simón Athletic Bilbao Active 152 / 176 40% 1 04.08.2026 -
Augusto Batalla Rayo Vallecano Active 145 / 153 40% 1 03.08.2026 -
Andrew Flamengo Active 120 / 134 40% 1 01.08.2026 -